MDST/STI METAR and TAF weather

Enter ICAO airport designator
Station Type Date Time Source
MDST METAR 2019/06/27 10:00 UTC NOAA

MDST 271000Z 19004KT 9999 SCT015 22/22 Q1016


Station Type Date Time Source
MDST Decoded METAR 2019/06/27 10:00 UTC NOAA

Santiago, Dominican Republic (MDST) 19-27N 070-42W
Jun 27, 2019 - 06:00 AM EDT / 2019.06.27 1000 UTC
Wind: from the S (190 degrees) at 5 MPH (4 KT):0
Visibility: greater than 7 mile(s):0
Sky conditions: partly cloudy
Temperature: 71 F (22 C)
Dew Point: 71 F (22 C)
Relative Humidity: 100%
Pressure (altimeter): 30.00 in. Hg (1016 hPa)
ob: MDST 271000Z 19004KT 9999 SCT015 22/22 Q1016
cycle: 10

Station Type Date Time Source
MDST TAF 2019/06/27 12:07 UTC NOAA

TAF MDST 271000Z 2712/2812 21005KT 9999 SCT014 PROB30 2714/2718 7000 -RA BKN018
BECMG 2713/2715 11008KT

Example: see airport list